createdAt,value
2023-07-23T00:00:29.688Z,79.86
2023-07-23T00:01:29.769Z,80.20
2023-07-23T00:02:29.637Z,79.69
2023-07-23T00:03:29.489Z,79.80
2023-07-23T00:04:29.618Z,81.01
2023-07-23T00:05:29.420Z,81.21
2023-07-23T00:06:29.509Z,81.01
2023-07-23T00:07:29.375Z,80.50
2023-07-23T00:08:29.623Z,80.70
2023-07-23T00:09:29.332Z,79.49
2023-07-23T00:10:29.447Z,80.00
2023-07-23T00:11:29.652Z,80.30
2023-07-23T00:12:29.444Z,79.60
2023-07-23T00:13:29.258Z,79.80
2023-07-23T00:14:29.374Z,79.69
2023-07-23T00:15:29.224Z,80.30
2023-07-23T00:16:29.418Z,80.10
2023-07-23T00:17:29.214Z,79.49
2023-07-23T00:18:29.290Z,80.00
2023-07-23T00:19:29.130Z,77.98
2023-07-23T00:20:29.323Z,77.68
2023-07-23T00:21:29.300Z,77.28
2023-07-23T00:22:29.220Z,77.58
2023-07-23T00:23:29.045Z,77.64
2023-07-23T00:24:29.260Z,78.55
2023-07-23T00:25:29.013Z,78.69
2023-07-23T00:26:29.147Z,79.39
2023-07-23T00:27:28.971Z,79.39
2023-07-23T00:28:29.050Z,79.49
2023-07-23T00:29:28.930Z,78.59
2023-07-23T00:30:29.058Z,79.80
2023-07-23T00:31:29.088Z,79.90
2023-07-23T00:32:29.000Z,78.59
2023-07-23T00:33:28.845Z,77.88
2023-07-23T00:34:28.990Z,77.78
2023-07-23T00:35:28.805Z,77.88
2023-07-23T00:36:28.902Z,77.38
2023-07-23T00:37:28.767Z,77.68
2023-07-23T00:38:28.914Z,78.19
2023-07-23T00:39:28.720Z,77.17
2023-07-23T00:40:28.831Z,78.99
2023-07-23T00:41:28.810Z,78.49
2023-07-23T00:42:28.844Z,77.48
2023-07-23T00:43:28.645Z,75.56
2023-07-23T00:44:28.758Z,76.27
2023-07-23T00:45:28.624Z,75.76
2023-07-23T00:46:28.781Z,76.67
2023-07-23T00:47:28.581Z,76.97
2023-07-23T00:48:28.679Z,77.08
2023-07-23T00:49:28.521Z,77.08
2023-07-23T00:50:28.692Z,75.76
2023-07-23T00:51:28.594Z,76.17
2023-07-23T00:52:28.607Z,77.28
2023-07-23T00:53:28.437Z,77.28
2023-07-23T00:54:28.618Z,77.68
2023-07-23T00:55:28.401Z,77.68
2023-07-23T00:56:28.528Z,77.58
2023-07-23T00:57:28.354Z,77.58
2023-07-23T00:58:28.441Z,77.38
2023-07-23T00:59:28.333Z,77.68
2023-07-23T01:00:28.457Z,77.62
2023-07-23T01:01:28.525Z,77.48
2023-07-23T01:02:28.416Z,77.72
2023-07-23T01:03:28.254Z,77.82
2023-07-23T01:04:28.386Z,78.22
2023-07-23T01:05:28.203Z,78.12
2023-07-23T01:06:28.316Z,77.31
2023-07-23T01:07:28.160Z,77.51
2023-07-23T01:08:28.313Z,77.11
2023-07-23T01:09:28.116Z,77.51
2023-07-23T01:10:28.226Z,77.51
2023-07-23T01:11:28.315Z,77.72
2023-07-23T01:12:28.234Z,77.42
2023-07-23T01:13:28.038Z,77.62
2023-07-23T01:14:28.153Z,77.92
2023-07-23T01:15:28.013Z,78.52
2023-07-23T01:16:28.173Z,78.02
2023-07-23T01:17:28.092Z,77.92
2023-07-23T01:18:28.230Z,78.72
2023-07-23T01:19:27.915Z,78.12
2023-07-23T01:20:27.991Z,79.13
2023-07-23T01:21:28.030Z,78.83
2023-07-23T01:22:28.016Z,77.55
2023-07-23T01:23:27.847Z,77.95
2023-07-23T01:24:27.953Z,77.92
2023-07-23T01:25:27.803Z,78.72
2023-07-23T01:26:27.930Z,79.03
2023-07-23T01:27:27.752Z,78.46
2023-07-23T01:28:27.841Z,78.83
2023-07-23T01:29:27.711Z,77.95
2023-07-23T01:30:27.857Z,77.66
2023-07-23T01:31:27.977Z,77.51
2023-07-23T01:32:27.808Z,77.72
2023-07-23T01:33:27.632Z,77.42
2023-07-23T01:34:27.793Z,78.26
2023-07-23T01:35:27.580Z,78.16
2023-07-23T01:36:27.704Z,78.16
2023-07-23T01:37:27.550Z,77.66
2023-07-23T01:38:27.755Z,78.46
2023-07-23T01:39:27.508Z,77.35
2023-07-23T01:40:27.630Z,78.36
2023-07-23T01:41:27.835Z,78.76
2023-07-23T01:42:27.531Z,78.46
2023-07-23T01:43:27.420Z,77.45
2023-07-23T01:44:27.546Z,76.54
2023-07-23T01:45:27.381Z,77.86
2023-07-23T01:46:27.480Z,77.86
2023-07-23T01:47:27.402Z,77.35
2023-07-23T01:48:27.477Z,77.66
2023-07-23T01:49:27.314Z,78.66
2023-07-23T01:50:27.386Z,79.27
2023-07-23T01:51:27.702Z,78.66
2023-07-23T01:52:27.408Z,77.75
2023-07-23T01:53:27.205Z,77.95
2023-07-23T01:54:27.313Z,77.66
2023-07-23T01:55:27.183Z,77.66
2023-07-23T01:56:27.326Z,78.16
2023-07-23T01:57:27.139Z,78.36
2023-07-23T01:58:27.252Z,77.75
2023-07-23T01:59:27.094Z,77.75
2023-07-23T02:00:27.252Z,77.86
2023-07-23T02:01:27.330Z,78.56
2023-07-23T02:02:27.320Z,79.06
2023-07-23T02:03:27.032Z,78.36
2023-07-23T02:04:27.218Z,78.86
2023-07-23T02:05:26.991Z,78.76
2023-07-23T02:06:27.119Z,78.50
2023-07-23T02:07:26.936Z,78.56
2023-07-23T02:08:27.007Z,78.50
2023-07-23T02:09:26.890Z,78.19
2023-07-23T02:10:28.040Z,78.19
2023-07-23T02:11:27.175Z,77.39
2023-07-23T02:12:26.950Z,77.69
2023-07-23T02:13:26.806Z,78.39
2023-07-23T02:14:26.945Z,78.50
2023-07-23T02:15:26.785Z,78.30
2023-07-23T02:16:26.884Z,77.99
2023-07-23T02:17:26.839Z,78.09
2023-07-23T02:18:26.873Z,78.19
2023-07-23T02:19:26.683Z,79.91
2023-07-23T02:20:26.785Z,78.50
2023-07-23T02:21:26.908Z,78.19
2023-07-23T02:22:26.798Z,78.80
2023-07-23T02:23:26.604Z,78.50
2023-07-23T02:24:26.721Z,78.59
2023-07-23T02:25:26.559Z,77.69
2023-07-23T02:26:26.736Z,78.30
2023-07-23T02:27:26.521Z,76.28
2023-07-23T02:28:26.646Z,77.32
2023-07-23T02:29:26.489Z,77.28
2023-07-23T02:30:26.674Z,77.49
2023-07-23T02:31:26.860Z,77.99
2023-07-23T02:32:26.599Z,79.91
2023-07-23T02:33:26.407Z,78.13
2023-07-23T02:34:26.482Z,78.90
2023-07-23T02:35:26.349Z,78.50
2023-07-23T02:36:26.492Z,78.39
2023-07-23T02:37:26.322Z,78.19
2023-07-23T02:38:26.408Z,76.98
2023-07-23T02:39:26.271Z,78.80
2023-07-23T02:40:26.434Z,77.83
2023-07-23T02:41:26.514Z,77.32
2023-07-23T02:42:27.852Z,76.01
2023-07-23T02:43:26.191Z,75.67
2023-07-23T02:44:26.349Z,76.07
2023-07-23T02:45:26.146Z,75.07
2023-07-23T02:46:26.289Z,75.16
2023-07-23T02:47:26.144Z,76.07
2023-07-23T02:48:26.280Z,74.76
2023-07-23T02:49:26.072Z,75.27
2023-07-23T02:50:26.180Z,73.55
2023-07-23T02:51:26.169Z,73.15
2023-07-23T02:52:26.114Z,72.51
2023-07-23T02:53:25.982Z,73.35
2023-07-23T02:54:26.109Z,73.11
2023-07-23T02:55:25.944Z,71.70
2023-07-23T02:56:26.019Z,72.20
2023-07-23T02:57:26.049Z,70.19
2023-07-23T02:58:26.058Z,70.49
2023-07-23T02:59:25.859Z,70.89
2023-07-23T03:00:25.960Z,69.95
2023-07-23T03:01:25.958Z,70.59
2023-07-23T03:02:26.933Z,70.76
2023-07-23T03:03:25.867Z,70.36
2023-07-23T03:04:25.869Z,70.66
2023-07-23T03:05:25.768Z,71.26
2023-07-23T03:06:25.891Z,70.66
2023-07-23T03:07:25.700Z,70.15
2023-07-23T03:08:25.798Z,70.46
2023-07-23T03:09:25.657Z,70.15
2023-07-23T03:10:25.832Z,69.85
2023-07-23T03:11:25.660Z,68.34
2023-07-23T03:12:25.742Z,68.74
2023-07-23T03:13:25.567Z,68.71
2023-07-23T03:14:25.751Z,68.81
2023-07-23T03:15:25.514Z,69.01
2023-07-23T03:16:25.704Z,69.01
2023-07-23T03:17:25.523Z,67.40
2023-07-23T03:18:25.561Z,68.31
2023-07-23T03:19:25.455Z,69.32
2023-07-23T03:20:25.581Z,68.51
2023-07-23T03:21:25.497Z,68.01
2023-07-23T03:22:25.488Z,68.01
2023-07-23T03:23:25.379Z,68.31
2023-07-23T03:24:25.544Z,68.41
2023-07-23T03:25:25.322Z,68.11
2023-07-23T03:26:25.415Z,67.40
2023-07-23T03:27:25.270Z,67.50
2023-07-23T03:28:25.436Z,66.56
2023-07-23T03:29:25.239Z,67.40
2023-07-23T03:30:25.359Z,67.47
2023-07-23T03:31:25.257Z,68.11
2023-07-23T03:32:25.277Z,67.57
2023-07-23T03:33:25.153Z,66.97
2023-07-23T03:34:25.276Z,67.40
2023-07-23T03:35:25.113Z,67.97
2023-07-23T03:36:25.181Z,66.39
2023-07-23T03:37:25.074Z,66.19
2023-07-23T03:38:25.200Z,68.21
2023-07-23T03:39:25.067Z,67.27
2023-07-23T03:40:25.107Z,66.47
2023-07-23T03:41:24.986Z,66.16
2023-07-23T03:42:25.123Z,66.67
2023-07-23T03:43:24.940Z,66.87
2023-07-23T03:44:25.044Z,66.27
2023-07-23T03:45:24.912Z,66.27
2023-07-23T03:46:25.096Z,66.47
2023-07-23T03:47:24.875Z,66.56
2023-07-23T03:48:24.961Z,66.56
2023-07-23T03:49:24.825Z,66.97
2023-07-23T03:50:24.974Z,66.77
2023-07-23T03:51:24.772Z,66.97
2023-07-23T03:52:24.895Z,66.56
2023-07-23T03:53:24.730Z,66.47
2023-07-23T03:54:24.901Z,67.47
2023-07-23T03:55:24.694Z,66.50
2023-07-23T03:56:24.826Z,66.16
2023-07-23T03:57:24.646Z,66.47
2023-07-23T03:58:24.736Z,66.36
2023-07-23T03:59:24.611Z,67.17
2023-07-23T04:00:24.748Z,66.56
2023-07-23T04:01:24.612Z,66.36
2023-07-23T04:02:24.679Z,66.27
2023-07-23T04:03:24.555Z,66.36
2023-07-23T04:04:24.676Z,66.27
2023-07-23T04:05:24.483Z,66.16
2023-07-23T04:06:25.601Z,66.47
2023-07-23T04:07:24.437Z,66.47
2023-07-23T04:08:24.618Z,66.36
2023-07-23T04:09:24.401Z,66.56
2023-07-23T04:10:24.520Z,65.86
2023-07-23T04:11:24.375Z,66.56
2023-07-23T04:12:24.525Z,65.96
2023-07-23T04:13:24.326Z,65.86
2023-07-23T04:14:24.430Z,65.22
2023-07-23T04:15:24.272Z,65.16
2023-07-23T04:16:24.360Z,64.52
2023-07-23T04:17:24.257Z,65.02
2023-07-23T04:18:24.350Z,65.42
2023-07-23T04:19:24.207Z,65.22
2023-07-23T04:20:24.267Z,65.33
2023-07-23T04:21:24.170Z,64.72
2023-07-23T04:22:24.279Z,65.02
2023-07-23T04:23:24.106Z,64.82
2023-07-23T04:24:24.221Z,64.32
2023-07-23T04:25:24.068Z,64.82
2023-07-23T04:26:24.207Z,64.82
2023-07-23T04:27:24.027Z,64.52
2023-07-23T04:28:24.128Z,64.92
2023-07-23T04:29:23.986Z,64.82
2023-07-23T04:30:24.151Z,65.19
2023-07-23T04:31:23.978Z,64.49
2023-07-23T04:32:24.056Z,64.72
2023-07-23T04:33:23.905Z,64.22
2023-07-23T04:34:24.062Z,64.42
2023-07-23T04:35:23.863Z,63.48
2023-07-23T04:36:24.026Z,63.68
2023-07-23T04:37:23.819Z,64.09
2023-07-23T04:38:23.900Z,64.29
2023-07-23T04:39:23.776Z,63.89
2023-07-23T04:40:23.915Z,64.49
2023-07-23T04:41:23.743Z,64.39
2023-07-23T04:42:23.812Z,64.99
2023-07-23T04:43:23.708Z,63.99
2023-07-23T04:44:23.842Z,64.59
2023-07-23T04:45:23.655Z,63.89
2023-07-23T04:46:23.734Z,64.09
2023-07-23T04:47:23.621Z,63.89
2023-07-23T04:48:23.752Z,64.09
2023-07-23T04:49:23.595Z,63.59
2023-07-23T04:50:23.661Z,64.06
2023-07-23T04:51:23.563Z,65.06
2023-07-23T04:52:23.678Z,63.28
2023-07-23T04:53:23.488Z,63.25
2023-07-23T04:54:23.588Z,63.65
2023-07-23T04:55:23.446Z,63.25
2023-07-23T04:56:23.502Z,63.56
2023-07-23T04:57:23.399Z,63.96
2023-07-23T04:58:23.516Z,63.59
2023-07-23T04:59:23.378Z,63.39
2023-07-23T05:00:23.429Z,64.06
2023-07-23T05:01:23.389Z,63.65
2023-07-23T05:02:23.443Z,63.65
2023-07-23T05:03:23.310Z,63.45
2023-07-23T05:04:23.378Z,64.16
2023-07-23T05:05:23.239Z,63.99
2023-07-23T05:06:23.369Z,63.89
2023-07-23T05:07:23.195Z,63.65
2023-07-23T05:08:23.336Z,63.76
2023-07-23T05:09:23.158Z,63.85
2023-07-23T05:10:23.292Z,63.48
2023-07-23T05:11:23.125Z,64.26
2023-07-23T05:12:23.212Z,64.39
2023-07-23T05:13:23.055Z,63.65
2023-07-23T05:14:23.224Z,64.26
2023-07-23T05:15:23.060Z,64.29
2023-07-23T05:16:23.134Z,63.65
2023-07-23T05:17:23.024Z,63.15
2023-07-23T05:18:23.046Z,64.06
2023-07-23T05:19:22.951Z,63.76
2023-07-23T05:20:23.065Z,64.36
2023-07-23T05:21:22.903Z,63.85
2023-07-23T05:22:22.977Z,63.85
2023-07-23T05:23:22.854Z,63.35
2023-07-23T05:24:22.989Z,63.45
2023-07-23T05:25:22.819Z,63.76
2023-07-23T05:26:22.895Z,63.76
2023-07-23T05:27:22.776Z,63.65
2023-07-23T05:28:22.926Z,63.25
2023-07-23T05:29:22.742Z,63.35
2023-07-23T05:30:22.845Z,63.45
2023-07-23T05:31:22.746Z,63.25
2023-07-23T05:32:22.869Z,63.25
2023-07-23T05:33:22.680Z,63.76
2023-07-23T05:34:22.776Z,64.06
2023-07-23T05:35:22.618Z,64.36
2023-07-23T05:36:22.794Z,64.06
2023-07-23T05:37:22.572Z,64.76
2023-07-23T05:38:22.685Z,63.96
2023-07-23T05:39:22.530Z,64.46
2023-07-23T05:40:22.590Z,64.46
2023-07-23T05:41:22.486Z,63.56
2023-07-23T05:42:22.613Z,63.56
2023-07-23T05:43:22.452Z,63.65
2023-07-23T05:44:22.527Z,62.82
2023-07-23T05:45:22.402Z,63.12
2023-07-23T05:46:22.569Z,63.65
2023-07-23T05:47:22.364Z,64.16
2023-07-23T05:48:22.447Z,63.42
2023-07-23T05:49:22.338Z,63.35
2023-07-23T05:50:22.457Z,63.96
2023-07-23T05:51:22.286Z,63.85
2023-07-23T05:52:22.372Z,64.16
2023-07-23T05:53:22.243Z,64.43
2023-07-23T05:54:22.389Z,64.53
2023-07-23T05:55:22.200Z,63.15
2023-07-23T05:56:22.303Z,63.65
2023-07-23T05:57:22.156Z,62.12
2023-07-23T05:58:22.232Z,63.45
2023-07-23T05:59:22.142Z,62.85
2023-07-23T06:00:22.221Z,63.85
2023-07-23T06:01:22.130Z,63.42
2023-07-23T06:02:22.201Z,63.96
2023-07-23T06:03:22.070Z,64.46
2023-07-23T06:04:22.217Z,63.76
2023-07-23T06:05:22.003Z,64.16
2023-07-23T06:06:22.068Z,64.36
2023-07-23T06:07:21.955Z,63.85
2023-07-23T06:08:22.087Z,63.45
2023-07-23T06:09:21.938Z,63.05
2023-07-23T06:10:22.003Z,63.76
2023-07-23T06:11:21.894Z,64.06
2023-07-23T06:12:22.006Z,64.03
2023-07-23T06:13:21.831Z,63.62
2023-07-23T06:14:21.966Z,63.73
2023-07-23T06:15:21.858Z,64.66
2023-07-23T06:16:21.961Z,63.85
2023-07-23T06:17:21.770Z,63.93
2023-07-23T06:18:21.838Z,64.73
2023-07-23T06:19:21.735Z,63.62
2023-07-23T06:20:21.762Z,63.53
2023-07-23T06:21:21.650Z,63.82
2023-07-23T06:22:21.772Z,63.65
2023-07-23T06:23:21.623Z,63.85
2023-07-23T06:24:21.832Z,63.96
2023-07-23T06:25:21.579Z,64.06
2023-07-23T06:26:21.692Z,64.26
2023-07-23T06:27:21.553Z,64.03
2023-07-23T06:28:21.611Z,63.96
2023-07-23T06:29:21.502Z,64.06
2023-07-23T06:30:21.626Z,63.22
2023-07-23T06:31:21.489Z,64.26
2023-07-23T06:32:21.561Z,64.63
2023-07-23T06:33:21.427Z,63.96
2023-07-23T06:34:21.569Z,63.65
2023-07-23T06:35:21.382Z,63.73
2023-07-23T06:36:21.462Z,64.43
2023-07-23T06:37:21.348Z,63.96
2023-07-23T06:38:21.472Z,63.62
2023-07-23T06:39:21.306Z,64.03
2023-07-23T06:40:22.408Z,64.63
2023-07-23T06:41:21.269Z,63.53
2023-07-23T06:42:21.311Z,64.43
2023-07-23T06:43:21.215Z,64.23
2023-07-23T06:44:21.325Z,63.22
2023-07-23T06:45:21.171Z,65.13
2023-07-23T06:46:21.342Z,64.53
2023-07-23T06:47:21.205Z,64.43
2023-07-23T06:48:21.250Z,64.33
2023-07-23T06:49:21.098Z,64.13
2023-07-23T06:50:21.161Z,65.13
2023-07-23T06:51:21.059Z,64.53
2023-07-23T06:52:21.162Z,64.53
2023-07-23T06:53:21.014Z,64.43
2023-07-23T06:54:21.074Z,64.23
2023-07-23T06:55:20.968Z,64.63
2023-07-23T06:56:21.114Z,65.53
2023-07-23T06:57:20.939Z,64.93
2023-07-23T06:58:22.772Z,65.03
2023-07-23T06:59:20.899Z,65.64
2023-07-23T07:00:21.016Z,65.84
2023-07-23T07:01:20.976Z,65.13
2023-07-23T07:02:20.926Z,64.96
2023-07-23T07:03:20.827Z,65.56
2023-07-23T07:04:20.954Z,65.06
2023-07-23T07:05:20.880Z,65.16
2023-07-23T07:06:20.881Z,65.16
2023-07-23T07:07:20.763Z,65.36
2023-07-23T07:08:20.892Z,65.06
2023-07-23T07:09:20.687Z,65.77
2023-07-23T07:10:20.871Z,65.97
2023-07-23T07:11:20.653Z,65.77
2023-07-23T07:12:20.703Z,65.67
2023-07-23T07:13:20.600Z,65.97
2023-07-23T07:14:20.710Z,65.97
2023-07-23T07:15:20.589Z,65.77
2023-07-23T07:16:20.634Z,66.27
2023-07-23T07:17:20.551Z,66.20
2023-07-23T07:18:20.629Z,66.10
2023-07-23T07:19:20.477Z,66.30
2023-07-23T07:20:20.542Z,66.60
2023-07-23T07:21:20.421Z,66.71
2023-07-23T07:22:20.558Z,66.40
2023-07-23T07:23:20.398Z,66.07
2023-07-23T07:24:20.632Z,67.11
2023-07-23T07:25:20.365Z,66.60
2023-07-23T07:26:20.480Z,66.80
2023-07-23T07:27:20.311Z,66.77
2023-07-23T07:28:20.397Z,67.11
2023-07-23T07:29:20.287Z,67.21
2023-07-23T07:30:20.324Z,67.21
2023-07-23T07:31:20.263Z,67.91
2023-07-23T07:32:20.324Z,67.91
2023-07-23T07:33:20.190Z,67.21
2023-07-23T07:34:20.255Z,67.91
2023-07-23T07:35:20.149Z,68.21
2023-07-23T07:36:20.251Z,67.41
2023-07-23T07:37:20.919Z,67.91
2023-07-23T07:38:20.168Z,67.91
2023-07-23T07:39:20.083Z,67.94
2023-07-23T07:40:20.177Z,67.91
2023-07-23T07:41:20.032Z,68.31
2023-07-23T07:42:20.091Z,68.71
2023-07-23T07:43:19.976Z,68.24
2023-07-23T07:44:20.103Z,68.65
2023-07-23T07:45:19.937Z,68.91
2023-07-23T07:46:20.027Z,69.02
2023-07-23T07:47:19.925Z,68.71
2023-07-23T07:48:20.033Z,68.71
2023-07-23T07:49:19.855Z,68.71
2023-07-23T07:50:19.955Z,70.03
2023-07-23T07:51:19.809Z,69.42
2023-07-23T07:52:19.850Z,70.26
2023-07-23T07:53:19.758Z,70.56
2023-07-23T07:54:19.870Z,70.96
2023-07-23T07:55:19.727Z,71.26
2023-07-23T07:56:19.779Z,72.27
2023-07-23T07:57:19.673Z,72.17
2023-07-23T07:58:19.789Z,72.27
2023-07-23T07:59:19.654Z,72.47
2023-07-23T08:00:19.704Z,72.88
2023-07-23T08:01:19.601Z,74.18
2023-07-23T08:02:19.725Z,74.18
2023-07-23T08:03:19.703Z,74.42
2023-07-23T08:04:19.764Z,75.83
2023-07-23T08:05:19.595Z,75.23
2023-07-23T08:06:19.647Z,75.73
2023-07-23T08:07:19.488Z,75.53
2023-07-23T08:08:19.556Z,75.93
2023-07-23T08:09:19.436Z,77.14
2023-07-23T08:10:19.575Z,76.27
2023-07-23T08:11:19.397Z,77.38
2023-07-23T08:12:19.483Z,77.58
2023-07-23T08:13:19.356Z,78.12
2023-07-23T08:14:19.518Z,79.13
2023-07-23T08:15:19.315Z,79.77
2023-07-23T08:16:19.448Z,79.67
2023-07-23T08:17:19.268Z,79.87
2023-07-23T08:18:19.332Z,79.77
2023-07-23T08:19:19.266Z,80.27
2023-07-23T08:20:19.353Z,80.58
2023-07-23T08:21:19.183Z,80.38
2023-07-23T08:22:19.255Z,80.38
2023-07-23T08:23:19.189Z,80.38
2023-07-23T08:24:19.318Z,81.08
2023-07-23T08:25:19.105Z,80.88
2023-07-23T08:26:19.174Z,81.59
2023-07-23T08:27:19.068Z,81.18
2023-07-23T08:28:19.190Z,81.48
2023-07-23T08:29:19.032Z,81.18
2023-07-23T08:30:19.102Z,81.28
2023-07-23T08:31:18.997Z,81.68
2023-07-23T08:32:19.091Z,81.65
2023-07-23T08:33:19.079Z,81.15
2023-07-23T08:34:19.042Z,81.15
2023-07-23T08:35:18.896Z,81.35
2023-07-23T08:36:18.944Z,80.30
2023-07-23T08:37:18.864Z,80.50
2023-07-23T08:38:18.959Z,80.30
2023-07-23T08:39:18.828Z,80.70
2023-07-23T08:40:19.903Z,80.70
2023-07-23T08:41:18.770Z,80.30
2023-07-23T08:42:18.891Z,81.01
2023-07-23T08:43:18.769Z,80.40
2023-07-23T08:44:18.822Z,80.90
2023-07-23T08:45:18.705Z,81.21
2023-07-23T08:46:18.861Z,80.50
2023-07-23T08:47:18.641Z,81.10
2023-07-23T08:48:18.740Z,81.55
2023-07-23T08:49:18.624Z,82.25
2023-07-23T08:50:18.748Z,82.86
2023-07-23T08:51:18.566Z,83.56
2023-07-23T08:52:18.653Z,83.46
2023-07-23T08:53:18.530Z,83.56
2023-07-23T08:54:18.574Z,83.66
2023-07-23T08:55:18.476Z,84.27
2023-07-23T08:56:18.572Z,83.46
2023-07-23T08:57:18.434Z,83.26
2023-07-23T08:58:18.487Z,83.26
2023-07-23T08:59:18.395Z,83.62
2023-07-23T09:00:18.503Z,84.07
2023-07-23T09:01:18.403Z,84.27
2023-07-23T09:02:18.434Z,84.17
2023-07-23T09:03:18.305Z,84.74
2023-07-23T09:04:18.430Z,84.13
2023-07-23T09:05:18.261Z,83.12
2023-07-23T09:06:18.346Z,83.83
2023-07-23T09:07:18.224Z,83.93
2023-07-23T09:08:18.355Z,83.99
2023-07-23T09:09:18.186Z,83.18
2023-07-23T09:10:18.278Z,83.62
2023-07-23T09:11:18.151Z,83.59
2023-07-23T09:12:18.173Z,83.48
2023-07-23T09:13:18.095Z,83.48
2023-07-23T09:14:18.190Z,84.19
2023-07-23T09:15:18.058Z,83.99
2023-07-23T09:16:18.103Z,84.29
2023-07-23T09:17:18.013Z,83.75
2023-07-23T09:18:18.123Z,83.84
2023-07-23T09:19:17.979Z,83.40
2023-07-23T09:20:18.042Z,83.31
2023-07-23T09:21:18.755Z,83.00
2023-07-23T09:22:18.044Z,83.04
2023-07-23T09:23:17.900Z,83.84
2023-07-23T09:24:18.006Z,83.75
2023-07-23T09:25:17.852Z,84.05
2023-07-23T09:26:17.993Z,84.65
2023-07-23T09:27:17.809Z,84.80
2023-07-23T09:28:17.882Z,84.89
2023-07-23T09:29:17.780Z,85.50
2023-07-23T09:30:17.811Z,85.66
2023-07-23T09:31:17.777Z,86.16
2023-07-23T09:32:17.833Z,85.66
2023-07-23T09:33:17.695Z,85.76
2023-07-23T09:34:17.732Z,84.05
2023-07-23T09:35:17.638Z,84.95
2023-07-23T09:36:17.745Z,85.36
2023-07-23T09:37:17.626Z,85.22
2023-07-23T09:38:20.127Z,83.81
2023-07-23T09:39:17.563Z,83.95
2023-07-23T09:40:17.697Z,83.54
2023-07-23T09:41:17.526Z,84.25
2023-07-23T09:42:17.572Z,84.81
2023-07-23T09:43:17.481Z,83.95
2023-07-23T09:44:19.821Z,84.01
2023-07-23T09:45:17.440Z,83.91
2023-07-23T09:46:17.520Z,83.81
2023-07-23T09:47:17.415Z,83.97
2023-07-23T09:48:17.853Z,83.17
2023-07-23T09:49:17.352Z,82.80
2023-07-23T09:50:19.659Z,82.97
2023-07-23T09:51:17.314Z,82.46
2023-07-23T09:52:17.342Z,81.21
2023-07-23T09:53:17.289Z,81.32
2023-07-23T09:54:17.353Z,80.51
2023-07-23T09:55:17.267Z,80.41
2023-07-23T09:56:17.294Z,80.41
2023-07-23T09:57:17.201Z,79.61
2023-07-23T09:58:17.307Z,80.21
2023-07-23T09:59:17.155Z,80.91
2023-07-23T10:00:17.243Z,80.41
2023-07-23T10:01:17.158Z,79.41
2023-07-23T10:02:17.246Z,80.21
2023-07-23T10:03:17.152Z,79.41
2023-07-23T10:04:17.114Z,79.87
2023-07-23T10:05:17.051Z,79.57
2023-07-23T10:06:17.135Z,79.30
2023-07-23T10:07:16.990Z,79.61
2023-07-23T10:08:17.144Z,79.41
2023-07-23T10:09:16.958Z,79.30
2023-07-23T10:10:17.121Z,79.30
2023-07-23T10:11:16.898Z,79.41
2023-07-23T10:12:16.969Z,79.57
2023-07-23T10:13:16.902Z,79.10
2023-07-23T10:14:16.990Z,79.71
2023-07-23T10:15:16.821Z,79.21
2023-07-23T10:16:16.910Z,79.30
2023-07-23T10:17:16.827Z,79.61
2023-07-23T10:18:16.813Z,79.21
2023-07-23T10:19:16.755Z,79.41
2023-07-23T10:20:16.860Z,79.41
2023-07-23T10:21:16.701Z,79.41
2023-07-23T10:22:16.733Z,79.21
2023-07-23T10:23:16.707Z,79.77
2023-07-23T10:24:16.797Z,79.87
2023-07-23T10:25:29.580Z,79.47
2023-07-23T10:26:16.747Z,79.17
2023-07-23T10:27:16.589Z,79.97
2023-07-23T10:28:16.591Z,79.47
2023-07-23T10:29:16.620Z,79.97
2023-07-23T10:30:16.601Z,79.63
2023-07-23T10:31:16.579Z,78.09
2023-07-23T10:32:16.498Z,78.42
2023-07-23T10:33:16.468Z,78.42
2023-07-23T10:34:16.515Z,79.63
2023-07-23T10:35:16.420Z,79.53
2023-07-23T10:36:16.425Z,79.73
2023-07-23T10:37:16.374Z,77.83
2023-07-23T10:38:16.438Z,77.92
2023-07-23T10:39:16.350Z,77.92
2023-07-23T10:40:16.412Z,78.06
2023-07-23T10:41:16.320Z,78.42
2023-07-23T10:42:16.380Z,78.33
2023-07-23T10:43:16.314Z,78.83
2023-07-23T10:44:16.317Z,79.13
2023-07-23T10:45:16.249Z,78.19
2023-07-23T10:46:16.367Z,78.09
2023-07-23T10:47:16.181Z,77.59
2023-07-23T10:48:16.205Z,77.32
2023-07-23T10:49:16.159Z,77.22
2023-07-23T10:50:16.360Z,78.03
2023-07-23T10:51:16.103Z,78.33
2023-07-23T10:52:16.154Z,78.22
2023-07-23T10:53:16.104Z,78.03
2023-07-23T10:54:16.147Z,79.37
2023-07-23T10:55:16.024Z,79.37
2023-07-23T10:56:17.079Z,78.46
2023-07-23T10:57:15.982Z,78.36
2023-07-23T10:58:15.973Z,79.27
2023-07-23T10:59:16.010Z,79.47
2023-07-23T11:00:15.991Z,77.83
2023-07-23T11:01:15.936Z,77.22
2023-07-23T11:02:16.920Z,78.33
2023-07-23T11:03:16.091Z,77.09
2023-07-23T11:04:15.926Z,77.12
2023-07-23T11:05:15.824Z,77.62
2023-07-23T11:06:15.825Z,78.13
2023-07-23T11:07:15.794Z,77.92
2023-07-23T11:08:15.878Z,77.62
2023-07-23T11:09:15.752Z,77.99
2023-07-23T11:10:15.747Z,77.79
2023-07-23T11:11:15.710Z,77.79
2023-07-23T11:12:15.686Z,76.95
2023-07-23T11:13:15.665Z,77.25
2023-07-23T11:14:15.674Z,77.35
2023-07-23T11:15:15.634Z,76.31
2023-07-23T11:16:15.832Z,77.01
2023-07-23T11:17:15.583Z,76.31
2023-07-23T11:18:15.647Z,76.31
2023-07-23T11:19:15.566Z,75.74
2023-07-23T11:20:15.617Z,77.15
2023-07-23T11:21:15.604Z,76.85
2023-07-23T11:22:15.564Z,77.05
2023-07-23T11:23:15.492Z,77.05
2023-07-23T11:24:15.635Z,78.35
2023-07-23T11:25:15.431Z,78.55
2023-07-23T11:26:15.418Z,79.99
2023-07-23T11:27:15.392Z,80.70
2023-07-23T11:28:15.432Z,81.44
2023-07-23T11:29:15.343Z,81.00
2023-07-23T11:30:15.376Z,82.10
2023-07-23T11:31:15.330Z,81.30
2023-07-23T11:32:15.356Z,80.40
2023-07-23T11:33:15.262Z,80.30
2023-07-23T11:34:15.285Z,80.96
2023-07-23T11:35:15.225Z,79.80
2023-07-23T11:36:15.288Z,80.36
2023-07-23T11:37:15.185Z,79.49
2023-07-23T11:38:15.205Z,79.60
2023-07-23T11:39:15.167Z,79.55
2023-07-23T11:40:15.218Z,79.09
2023-07-23T11:41:20.438Z,79.60
2023-07-23T11:42:15.149Z,79.19
2023-07-23T11:43:15.082Z,79.49
2023-07-23T11:44:15.138Z,80.74
2023-07-23T11:45:15.033Z,81.34
2023-07-23T11:46:15.112Z,81.04
2023-07-23T11:47:14.995Z,82.14
2023-07-23T11:48:15.070Z,81.64
2023-07-23T11:49:14.964Z,80.13
2023-07-23T11:50:14.983Z,80.33
2023-07-23T11:51:14.911Z,80.94
2023-07-23T11:52:14.996Z,80.63
2023-07-23T11:53:16.792Z,80.24
2023-07-23T11:54:14.964Z,80.54
2023-07-23T11:55:14.829Z,80.54
2023-07-23T11:56:14.964Z,81.34
2023-07-23T11:57:14.795Z,80.54
2023-07-23T11:58:14.834Z,80.04
2023-07-23T11:59:17.758Z,80.04
2023-07-23T12:00:14.743Z,80.77
2023-07-23T12:01:14.734Z,80.27
2023-07-23T12:02:14.775Z,81.34
2023-07-23T12:03:14.778Z,81.98
2023-07-23T12:04:14.726Z,82.28
2023-07-23T12:05:14.628Z,82.48
2023-07-23T12:06:14.687Z,82.48
2023-07-23T12:07:14.595Z,83.49
2023-07-23T12:08:14.616Z,84.19
2023-07-23T12:09:14.566Z,83.59
2023-07-23T12:10:14.608Z,83.39
2023-07-23T12:11:14.529Z,83.79
2023-07-23T12:12:14.520Z,82.78
2023-07-23T12:13:14.466Z,83.09
2023-07-23T12:14:14.534Z,82.58
2023-07-23T12:15:14.432Z,82.28
2023-07-23T12:16:14.476Z,82.89
2023-07-23T12:17:14.394Z,82.54
2023-07-23T12:18:14.467Z,81.54
2023-07-23T12:19:14.354Z,81.64
2023-07-23T12:20:14.379Z,82.04
2023-07-23T12:21:14.302Z,81.54
2023-07-23T12:22:14.307Z,81.70
2023-07-23T12:23:14.269Z,81.10
2023-07-23T12:24:14.339Z,80.19
2023-07-23T12:25:14.240Z,80.19
2023-07-23T12:26:14.225Z,81.10
2023-07-23T12:27:14.181Z,80.56
2023-07-23T12:28:14.224Z,80.26
2023-07-23T12:29:14.164Z,79.55
2023-07-23T12:30:14.138Z,79.96
2023-07-23T12:31:14.150Z,79.96
2023-07-23T12:32:14.196Z,79.46
2023-07-23T12:33:14.073Z,79.25
2023-07-23T12:34:14.125Z,79.55
2023-07-23T12:35:14.035Z,79.46
2023-07-23T12:36:14.079Z,80.16
2023-07-23T12:37:14.072Z,79.22
2023-07-23T12:38:13.993Z,78.78
2023-07-23T12:39:13.981Z,78.18
2023-07-23T12:40:14.007Z,77.37
2023-07-23T12:41:13.904Z,77.44
2023-07-23T12:42:13.923Z,77.54
2023-07-23T12:43:13.873Z,76.90
2023-07-23T12:44:13.935Z,77.60
2023-07-23T12:45:13.841Z,75.70
2023-07-23T12:46:13.908Z,75.80
2023-07-23T12:47:13.795Z,75.80
2023-07-23T12:48:13.870Z,74.90
2023-07-23T12:49:13.762Z,75.50
2023-07-23T12:50:13.785Z,75.56
2023-07-23T12:51:13.747Z,75.26
2023-07-23T12:52:13.826Z,75.63